createdAt,value
2023-02-24T00:00:34.254Z,99.90
2023-02-24T00:03:11.069Z,99.90
2023-02-24T00:05:44.411Z,99.90
2023-02-24T00:08:12.864Z,99.90
2023-02-24T00:10:44.549Z,99.90
2023-02-24T00:13:13.470Z,99.90
2023-02-24T00:15:41.932Z,99.90
2023-02-24T00:18:10.716Z,99.90
2023-02-24T00:20:40.929Z,99.90
2023-02-24T00:23:09.798Z,99.90
2023-02-24T00:25:38.445Z,99.90
2023-02-24T00:28:08.906Z,99.90
2023-02-24T00:30:37.573Z,99.90
2023-02-24T00:33:07.067Z,99.90
2023-02-24T00:35:35.806Z,99.90
2023-02-24T00:38:04.353Z,99.90
2023-02-24T00:40:37.793Z,99.90
2023-02-24T00:43:09.901Z,99.90
2023-02-24T00:45:39.253Z,99.90
2023-02-24T00:48:10.819Z,99.90
2023-02-24T00:50:40.404Z,99.90
2023-02-24T00:53:11.455Z,99.90
2023-02-24T00:55:39.737Z,99.90
2023-02-24T00:58:09.941Z,99.90
2023-02-24T01:00:39.319Z,99.90
2023-02-24T01:03:08.209Z,99.90
2023-02-24T01:05:39.473Z,99.90
2023-02-24T01:08:09.822Z,99.90
2023-02-24T01:10:38.511Z,99.90
2023-02-24T01:13:06.124Z,99.90
2023-02-24T01:15:37.493Z,99.90
2023-02-24T01:18:06.107Z,99.90
2023-02-24T01:20:34.662Z,99.90
2023-02-24T01:23:03.628Z,99.90
2023-02-24T01:25:34.809Z,99.90
2023-02-24T01:28:04.114Z,99.90
2023-02-24T01:30:33.036Z,99.90
2023-02-24T01:33:03.951Z,99.90
2023-02-24T01:35:34.980Z,99.90
2023-02-24T01:38:03.766Z,99.90
2023-02-24T01:40:33.646Z,99.90
2023-02-24T01:43:02.219Z,99.90
2023-02-24T01:45:36.812Z,99.90
2023-02-24T01:48:11.277Z,99.90
2023-02-24T01:50:42.246Z,99.90
2023-02-24T01:53:12.063Z,99.90
2023-02-24T01:55:47.105Z,99.90
2023-02-24T01:58:23.042Z,99.90
2023-02-24T02:00:51.910Z,99.90
2023-02-24T02:03:27.113Z,99.90
2023-02-24T02:06:01.326Z,99.90
2023-02-24T02:08:30.614Z,99.90
2023-02-24T02:11:04.567Z,99.90
2023-02-24T02:13:39.214Z,99.90
2023-02-24T02:16:21.905Z,99.90
2023-02-24T02:19:00.885Z,99.90
2023-02-24T02:22:03.902Z,99.90
2023-02-24T02:24:50.677Z,99.90
2023-02-24T02:27:58.819Z,99.90
2023-02-24T02:30:50.417Z,99.90
2023-02-24T02:33:53.147Z,99.90
2023-02-24T02:36:28.047Z,99.90
2023-02-24T02:39:05.690Z,99.90
2023-02-24T02:41:44.174Z,99.90
2023-02-24T02:44:20.116Z,99.90
2023-02-24T02:46:55.193Z,99.90
2023-02-24T02:49:32.312Z,99.90
2023-02-24T02:52:07.823Z,99.90
2023-02-24T02:54:45.569Z,99.90
2023-02-24T02:57:20.736Z,99.90
2023-02-24T02:59:54.184Z,99.90
2023-02-24T03:02:30.439Z,99.90
2023-02-24T03:05:04.399Z,99.90
2023-02-24T03:07:41.663Z,99.90
2023-02-24T03:10:20.912Z,99.90
2023-02-24T03:12:54.862Z,99.90
2023-02-24T03:15:30.305Z,99.90
2023-02-24T03:18:04.526Z,99.90
2023-02-24T03:20:43.541Z,99.90
2023-02-24T03:23:20.056Z,99.90
2023-02-24T03:25:58.892Z,99.90
2023-02-24T03:28:37.382Z,99.90
2023-02-24T03:31:12.174Z,99.90
2023-02-24T03:33:46.682Z,99.90
2023-02-24T03:36:16.059Z,99.90
2023-02-24T03:38:50.632Z,99.90
2023-02-24T03:41:20.756Z,99.90
2023-02-24T03:43:52.706Z,99.90
2023-02-24T03:46:22.104Z,99.90
2023-02-24T03:49:00.218Z,99.90
2023-02-24T03:51:29.697Z,99.90
2023-02-24T03:54:13.286Z,99.90
2023-02-24T03:56:58.114Z,99.90
2023-02-24T03:59:43.840Z,99.90
2023-02-24T04:02:20.824Z,99.90
2023-02-24T04:05:00.069Z,99.90
2023-02-24T04:07:42.677Z,99.90
2023-02-24T04:10:23.402Z,99.90
2023-02-24T04:12:57.754Z,99.90
2023-02-24T04:15:31.067Z,99.90
2023-02-24T04:18:05.867Z,99.90
2023-02-24T04:20:40.235Z,99.90
2023-02-24T04:23:16.811Z,99.90
2023-02-24T04:25:51.971Z,99.90
2023-02-24T04:28:23.539Z,99.90
2023-02-24T04:30:56.877Z,99.90
2023-02-24T04:33:25.920Z,99.90
2023-02-24T04:35:55.971Z,99.90
2023-02-24T04:38:25.501Z,99.90
2023-02-24T04:40:57.641Z,99.90
2023-02-24T04:43:26.386Z,99.90
2023-02-24T04:45:56.078Z,99.90
2023-02-24T04:48:24.855Z,99.90
2023-02-24T04:50:55.527Z,99.90
2023-02-24T04:53:27.374Z,99.90
2023-02-24T04:55:59.989Z,99.90
2023-02-24T04:58:29.085Z,99.90
2023-02-24T05:00:57.781Z,99.90
2023-02-24T05:03:31.784Z,99.90
2023-02-24T05:06:01.619Z,99.90
2023-02-24T05:08:32.333Z,99.90
2023-02-24T05:11:04.865Z,99.90
2023-02-24T05:13:34.940Z,99.90
2023-02-24T05:16:10.285Z,99.90
2023-02-24T05:18:39.568Z,99.90
2023-02-24T05:21:27.635Z,99.90
2023-02-24T05:23:58.358Z,99.90
2023-02-24T05:26:32.082Z,99.90
2023-02-24T05:29:01.982Z,99.90
2023-02-24T05:31:32.850Z,99.90
2023-02-24T05:34:04.010Z,99.90
2023-02-24T05:36:35.362Z,99.90
2023-02-24T05:39:07.881Z,99.90
2023-02-24T05:41:42.284Z,99.90
2023-02-24T05:44:16.277Z,99.90
2023-02-24T05:46:49.695Z,99.90
2023-02-24T05:49:23.714Z,99.90
2023-02-24T05:51:58.063Z,99.90
2023-02-24T05:54:30.604Z,99.90
2023-02-24T05:57:03.069Z,99.90
2023-02-24T05:59:33.771Z,99.90
2023-02-24T06:02:07.511Z,99.90
2023-02-24T06:04:51.491Z,99.90
2023-02-24T06:07:22.808Z,99.90
2023-02-24T06:09:56.696Z,99.90
2023-02-24T06:12:28.631Z,99.90
2023-02-24T06:14:58.123Z,99.90
2023-02-24T06:17:27.906Z,99.90
2023-02-24T06:19:59.171Z,99.90
2023-02-24T06:22:29.136Z,99.90
2023-02-24T06:24:58.240Z,99.90
2023-02-24T06:27:29.807Z,99.90
2023-02-24T06:29:59.134Z,99.90
2023-02-24T06:32:28.223Z,99.90
2023-02-24T06:34:57.686Z,99.90
2023-02-24T06:37:26.400Z,99.90
2023-02-24T06:39:56.292Z,99.90
2023-02-24T06:42:25.237Z,99.90
2023-02-24T06:44:55.252Z,99.90
2023-02-24T06:47:23.712Z,99.90
2023-02-24T06:49:52.693Z,99.90
2023-02-24T06:52:21.597Z,99.90
2023-02-24T06:54:52.556Z,99.90
2023-02-24T06:57:21.225Z,99.90
2023-02-24T06:59:51.553Z,99.90
2023-02-24T07:02:25.555Z,99.90
2023-02-24T07:04:55.316Z,99.90
2023-02-24T07:07:24.558Z,99.90
2023-02-24T07:09:56.001Z,99.90
2023-02-24T07:12:25.506Z,99.90
2023-02-24T07:14:53.896Z,99.90
2023-02-24T07:17:24.316Z,99.90
2023-02-24T07:19:54.589Z,99.90
2023-02-24T07:22:25.359Z,99.90
2023-02-24T07:25:00.493Z,99.90
2023-02-24T07:27:30.191Z,99.90
2023-02-24T07:29:59.335Z,99.90
2023-02-24T07:32:30.721Z,99.90
2023-02-24T07:34:59.741Z,99.90
2023-02-24T07:37:31.691Z,99.90
2023-02-24T07:40:01.192Z,99.90
2023-02-24T07:42:35.402Z,99.90
2023-02-24T07:45:08.992Z,99.90
2023-02-24T07:47:38.982Z,99.90
2023-02-24T07:50:14.870Z,99.90
2023-02-24T07:52:43.211Z,99.90
2023-02-24T07:55:15.625Z,99.90
2023-02-24T07:57:46.808Z,99.90
2023-02-24T08:00:19.835Z,99.90
2023-02-24T08:02:51.763Z,99.90
2023-02-24T08:05:22.527Z,99.90
2023-02-24T08:07:52.408Z,99.90
2023-02-24T08:10:27.207Z,99.90
2023-02-24T08:13:02.907Z,99.90
2023-02-24T08:15:36.346Z,99.90
2023-02-24T08:18:06.324Z,99.90
2023-02-24T08:20:51.819Z,99.90
2023-02-24T08:23:23.705Z,99.90
2023-02-24T08:25:53.859Z,99.90
2023-02-24T08:28:27.413Z,99.90
2023-02-24T08:30:56.110Z,99.90
2023-02-24T08:33:30.459Z,99.90
2023-02-24T08:36:02.957Z,99.90
2023-02-24T08:38:41.986Z,99.90
2023-02-24T08:41:20.374Z,99.90
2023-02-24T08:43:51.206Z,99.90
2023-02-24T08:46:26.806Z,99.90
2023-02-24T08:49:02.036Z,99.90
2023-02-24T08:51:35.066Z,99.90
2023-02-24T08:54:11.265Z,99.90
2023-02-24T08:56:43.839Z,99.90
2023-02-24T08:59:29.587Z,99.90
2023-02-24T09:02:18.428Z,99.90
2023-02-24T09:04:51.665Z,99.90
2023-02-24T09:07:23.518Z,99.90
2023-02-24T09:09:56.359Z,99.90
2023-02-24T09:12:26.124Z,99.90
2023-02-24T09:14:57.262Z,99.90
2023-02-24T09:17:54.796Z,99.90
2023-02-24T09:20:56.305Z,99.90
2023-02-24T09:23:31.017Z,99.90
2023-02-24T09:26:11.358Z,99.90
2023-02-24T09:28:48.754Z,99.90
2023-02-24T09:31:18.482Z,99.90
2023-02-24T09:33:51.906Z,99.90
2023-02-24T09:36:28.305Z,99.90
2023-02-24T09:39:17.157Z,99.90
2023-02-24T09:41:56.829Z,99.90
2023-02-24T09:44:33.650Z,99.90
2023-02-24T09:47:13.335Z,99.90
2023-02-24T09:49:56.158Z,99.90
2023-02-24T09:52:42.098Z,99.90
2023-02-24T09:55:26.244Z,98.70
2023-02-24T09:58:29.345Z,99.90
2023-02-24T10:01:30.991Z,92.70
2023-02-24T10:04:18.638Z,53.10
2023-02-24T10:06:51.507Z,41.70
2023-02-24T10:09:27.158Z,54.10
2023-02-24T10:12:04.538Z,33.00
2023-02-24T10:14:44.381Z,33.80
2023-02-24T10:17:30.708Z,21.30
2023-02-24T10:20:02.733Z,13.60
2023-02-24T10:22:53.209Z,13.70
2023-02-24T10:25:36.394Z,5.70
2023-02-24T10:28:20.504Z,10.30
2023-02-24T10:31:04.241Z,9.20
2023-02-24T10:33:38.926Z,8.40
2023-02-24T10:36:12.351Z,8.40
2023-02-24T10:38:45.488Z,1.00
2023-02-24T10:41:16.928Z,15.90
2023-02-24T10:43:56.968Z,1.00
2023-02-24T10:46:41.220Z,1.00
2023-02-24T10:49:17.061Z,1.00
2023-02-24T10:51:54.181Z,1.00
2023-02-24T10:54:45.333Z,1.00
2023-02-24T10:57:23.450Z,1.00
2023-02-24T11:00:13.463Z,99.90
2023-02-24T11:03:07.273Z,1.00
2023-02-24T11:05:44.515Z,1.00
2023-02-24T11:08:36.948Z,1.00
2023-02-24T11:11:20.609Z,1.00
2023-02-24T11:14:10.288Z,1.00
2023-02-24T11:17:05.636Z,1.00
2023-02-24T11:19:38.814Z,22.40
2023-02-24T11:22:09.073Z,1.00
2023-02-24T11:24:39.975Z,1.00
2023-02-24T11:27:09.073Z,1.00
2023-02-24T11:29:49.774Z,99.90
2023-02-24T11:32:33.251Z,99.90
2023-02-24T11:35:09.500Z,99.90
2023-02-24T11:37:43.414Z,1.00
2023-02-24T11:40:21.116Z,1.00
2023-02-24T11:42:54.605Z,93.50
2023-02-24T11:45:34.568Z,17.10
2023-02-24T11:48:07.543Z,36.70
2023-02-24T11:50:44.871Z,99.90
2023-02-24T11:53:25.283Z,99.90
2023-02-24T11:56:03.001Z,99.90
2023-02-24T11:58:41.762Z,7.30
2023-02-24T12:01:18.885Z,1.00
2023-02-24T12:03:55.465Z,38.40
2023-02-24T12:06:28.043Z,5.70
2023-02-24T12:09:02.367Z,1.00
2023-02-24T12:11:43.106Z,99.90
2023-02-24T12:14:23.476Z,1.00
2023-02-24T12:17:07.870Z,99.90
2023-02-24T12:19:45.350Z,99.90
2023-02-24T12:22:19.721Z,1.00
2023-02-24T12:24:51.800Z,1.00
2023-02-24T12:27:39.533Z,1.00
2023-02-24T12:30:38.848Z,99.90
2023-02-24T12:33:38.844Z,99.90
2023-02-24T12:36:21.458Z,1.00
2023-02-24T12:38:58.367Z,99.90
2023-02-24T12:41:38.734Z,99.90
2023-02-24T12:44:21.041Z,1.00
2023-02-24T12:46:58.466Z,99.90
2023-02-24T12:50:02.313Z,1.00
2023-02-24T12:52:41.537Z,43.90
2023-02-24T12:55:18.549Z,1.00
2023-02-24T12:57:54.828Z,1.00
2023-02-24T13:00:28.087Z,99.90
2023-02-24T13:03:08.167Z,99.90
2023-02-24T13:05:45.238Z,1.00
2023-02-24T13:08:28.896Z,99.90
2023-02-24T13:11:09.847Z,1.00
2023-02-24T13:13:46.627Z,99.90
2023-02-24T13:16:15.312Z,99.90
2023-02-24T13:18:45.592Z,1.00
2023-02-24T13:21:23.243Z,99.90
2023-02-24T13:24:01.914Z,99.90
2023-02-24T13:26:33.906Z,1.00
2023-02-24T13:29:10.323Z,1.00
2023-02-24T13:31:44.830Z,1.00
2023-02-24T13:34:33.941Z,99.90
2023-02-24T13:37:02.164Z,1.00
2023-02-24T13:39:36.999Z,1.00
2023-02-24T13:42:24.266Z,1.00
2023-02-24T13:44:55.054Z,1.00
2023-02-24T13:48:03.723Z,1.00
2023-02-24T13:50:41.168Z,99.90
2023-02-24T13:53:42.465Z,99.90
2023-02-24T13:56:26.743Z,1.00
2023-02-24T13:59:37.616Z,1.00
2023-02-24T14:02:15.950Z,99.90
2023-02-24T14:04:51.970Z,1.00
2023-02-24T14:07:23.847Z,1.00
2023-02-24T14:09:56.038Z,1.00
2023-02-24T14:12:29.547Z,1.00
2023-02-24T14:14:59.766Z,1.00
2023-02-24T14:17:31.808Z,1.00
2023-02-24T14:20:16.509Z,1.00
2023-02-24T14:22:49.464Z,1.00
2023-02-24T14:25:27.458Z,1.00
2023-02-24T14:27:59.873Z,1.00
2023-02-24T14:30:35.097Z,1.00
2023-02-24T14:33:07.264Z,1.00
2023-02-24T14:35:40.270Z,1.00
2023-02-24T14:38:28.197Z,1.00
2023-02-24T14:40:59.892Z,1.00
2023-02-24T14:43:31.032Z,1.00
2023-02-24T14:46:00.389Z,1.00
2023-02-24T14:48:33.230Z,1.00
2023-02-24T14:51:08.733Z,1.00
2023-02-24T14:53:39.641Z,1.00
2023-02-24T14:56:09.114Z,1.00
2023-02-24T14:58:44.655Z,1.00
2023-02-24T15:01:21.213Z,1.00
2023-02-24T15:03:54.908Z,1.00
2023-02-24T15:06:27.432Z,1.00
2023-02-24T15:09:00.852Z,1.00
2023-02-24T15:11:31.801Z,1.00
2023-02-24T15:14:06.170Z,1.00
2023-02-24T15:16:40.407Z,1.00
2023-02-24T15:19:26.433Z,1.00
2023-02-24T15:21:55.001Z,1.00
2023-02-24T15:24:28.350Z,1.00
2023-02-24T15:26:59.430Z,99.90
2023-02-24T15:29:31.475Z,1.00
2023-02-24T15:32:04.064Z,1.00
2023-02-24T15:34:36.302Z,1.00
2023-02-24T15:37:16.883Z,1.00
2023-02-24T15:39:46.698Z,1.00
2023-02-24T15:42:28.595Z,1.00
2023-02-24T15:45:01.468Z,99.90
2023-02-24T15:47:32.804Z,1.00
2023-02-24T15:50:01.384Z,1.00
2023-02-24T15:52:31.095Z,1.00
2023-02-24T15:55:02.695Z,1.00
2023-02-24T15:57:32.675Z,1.00
2023-02-24T16:00:08.972Z,1.00
2023-02-24T16:02:41.520Z,1.00
2023-02-24T16:05:13.744Z,1.00
2023-02-24T16:07:44.937Z,1.00
2023-02-24T16:10:22.548Z,1.00
2023-02-24T16:12:53.413Z,1.00
2023-02-24T16:15:27.251Z,1.00
2023-02-24T16:17:56.669Z,1.00
2023-02-24T16:20:31.557Z,1.00
2023-02-24T16:23:02.459Z,1.00
2023-02-24T16:25:34.233Z,1.00
2023-02-24T16:28:04.097Z,1.00
2023-02-24T16:34:44.716Z,1.00
2023-02-24T16:37:21.579Z,1.00
2023-02-24T16:39:49.877Z,1.00
2023-02-24T16:42:21.472Z,1.00
2023-02-24T16:44:51.034Z,1.00
2023-02-24T16:47:23.893Z,1.00
2023-02-24T16:49:55.281Z,1.00
2023-02-24T16:52:24.892Z,1.00
2023-02-24T16:54:54.041Z,1.00
2023-02-24T16:57:25.887Z,1.00
2023-02-24T16:59:55.150Z,1.00
2023-02-24T17:02:27.163Z,1.00
2023-02-24T17:04:57.192Z,1.00
2023-02-24T17:07:26.081Z,1.00
2023-02-24T17:09:55.015Z,1.00
2023-02-24T17:12:23.185Z,1.00
2023-02-24T17:14:56.497Z,1.00
2023-02-24T17:17:25.117Z,99.90
2023-02-24T17:19:54.674Z,1.00
2023-02-24T17:22:24.742Z,1.00
2023-02-24T17:24:55.923Z,1.00
2023-02-24T17:27:24.771Z,1.00
2023-02-24T17:29:53.350Z,1.00
2023-02-24T17:32:23.809Z,1.00
2023-02-24T17:34:53.465Z,1.00
2023-02-24T17:37:22.154Z,1.00
2023-02-24T17:39:52.292Z,1.00
2023-02-24T17:42:20.603Z,92.60
2023-02-24T17:44:48.962Z,99.90
2023-02-24T17:47:17.325Z,1.00
2023-02-24T17:49:46.651Z,1.00
2023-02-24T17:52:15.528Z,1.00
2023-02-24T17:54:44.772Z,1.00
2023-02-24T17:57:14.439Z,99.90
2023-02-24T17:59:46.077Z,31.40
2023-02-24T18:02:16.685Z,99.90
2023-02-24T18:04:45.522Z,99.90
2023-02-24T18:07:15.011Z,1.00
2023-02-24T18:09:43.854Z,1.00
2023-02-24T18:12:14.522Z,1.00
2023-02-24T18:14:48.410Z,1.00
2023-02-24T18:17:20.065Z,1.00
2023-02-24T18:19:50.772Z,1.00
2023-02-24T18:22:19.555Z,1.00
2023-02-24T18:24:48.221Z,99.90
2023-02-24T18:27:17.516Z,1.00
2023-02-24T18:29:47.903Z,1.00
2023-02-24T18:32:17.693Z,1.00
2023-02-24T18:34:46.538Z,1.00
2023-02-24T18:37:15.339Z,1.00
2023-02-24T18:39:44.729Z,1.00
2023-02-24T18:42:13.971Z,1.00
2023-02-24T18:44:42.552Z,1.00
2023-02-24T18:47:12.770Z,1.00
2023-02-24T18:49:41.821Z,1.00
2023-02-24T18:52:12.023Z,1.00
2023-02-24T18:54:40.924Z,1.00
2023-02-24T18:57:11.993Z,1.00
2023-02-24T18:59:40.121Z,1.00
2023-02-24T19:02:09.032Z,1.00
2023-02-24T19:04:38.985Z,1.00
2023-02-24T19:07:07.917Z,1.00
2023-02-24T19:09:36.807Z,1.00
2023-02-24T19:12:06.128Z,1.00
2023-02-24T19:14:37.764Z,1.00
2023-02-24T19:17:06.682Z,1.00
2023-02-24T19:19:35.512Z,1.00
2023-02-24T19:22:07.250Z,1.00
2023-02-24T19:24:36.271Z,1.00
2023-02-24T19:27:07.741Z,1.00
2023-02-24T19:29:37.519Z,1.00
2023-02-24T19:32:06.062Z,1.00
2023-02-24T19:34:36.665Z,1.00
2023-02-24T19:37:08.842Z,1.00
2023-02-24T19:39:37.491Z,1.00
2023-02-24T19:42:07.717Z,1.00
2023-02-24T19:44:37.656Z,1.00
2023-02-24T19:47:07.095Z,1.00
2023-02-24T19:49:36.692Z,1.00
2023-02-24T19:52:07.982Z,1.00
2023-02-24T19:54:38.846Z,1.00
2023-02-24T19:57:09.375Z,1.00
2023-02-24T19:59:43.245Z,1.00
2023-02-24T20:02:11.955Z,1.00
2023-02-24T20:04:40.767Z,1.00
2023-02-24T20:07:10.946Z,1.00
2023-02-24T20:09:42.110Z,1.00
2023-02-24T20:12:12.104Z,1.00
2023-02-24T20:14:41.305Z,1.00
2023-02-24T20:17:12.844Z,1.00
2023-02-24T20:19:41.312Z,1.00
2023-02-24T20:22:12.363Z,1.00
2023-02-24T20:24:41.234Z,1.00
2023-02-24T20:27:10.204Z,1.00
2023-02-24T20:29:40.654Z,1.00
2023-02-24T20:32:09.642Z,1.00
2023-02-24T20:34:41.378Z,1.00
2023-02-24T20:37:12.554Z,1.00
2023-02-24T20:39:41.180Z,1.00
2023-02-24T20:42:12.101Z,1.00
2023-02-24T20:44:41.021Z,1.00
2023-02-24T20:47:11.913Z,1.00
2023-02-24T20:49:47.985Z,1.00
2023-02-24T20:52:18.441Z,1.00
2023-02-24T20:54:46.865Z,1.00
2023-02-24T20:57:18.130Z,1.00
2023-02-24T21:00:01.511Z,1.00
2023-02-24T21:02:31.778Z,1.00
2023-02-24T21:05:00.720Z,1.00
2023-02-24T21:07:33.209Z,1.00
2023-02-24T21:10:02.866Z,1.00
2023-02-24T21:12:31.876Z,1.00
2023-02-24T21:15:01.092Z,1.00
2023-02-24T21:17:30.661Z,1.00
2023-02-24T21:20:01.830Z,1.00
2023-02-24T21:22:32.221Z,1.00
2023-02-24T21:25:02.192Z,1.00
2023-02-24T21:27:35.037Z,1.00
2023-02-24T21:30:03.692Z,1.00
2023-02-24T21:32:32.360Z,1.00
2023-02-24T21:35:03.330Z,1.00
2023-02-24T21:37:35.108Z,1.00
2023-02-24T21:40:11.176Z,1.00
2023-02-24T21:42:43.918Z,1.00
2023-02-24T21:45:14.096Z,1.00
2023-02-24T21:47:43.507Z,1.00
2023-02-24T21:50:16.210Z,1.00
2023-02-24T21:52:49.337Z,1.00
2023-02-24T21:55:19.441Z,1.00
2023-02-24T21:57:48.933Z,1.00
2023-02-24T22:00:19.913Z,1.00
2023-02-24T22:02:49.627Z,1.00
2023-02-24T22:05:20.418Z,1.00
2023-02-24T22:07:51.485Z,1.00
2023-02-24T22:10:23.797Z,1.00
2023-02-24T22:13:01.620Z,1.00
2023-02-24T22:15:30.438Z,1.00
2023-02-24T22:18:02.550Z,1.00
2023-02-24T22:20:31.457Z,1.00
2023-02-24T22:23:01.989Z,1.00
2023-02-24T22:25:30.509Z,1.00
2023-02-24T22:27:59.401Z,1.00
2023-02-24T22:30:28.116Z,1.00
2023-02-24T22:32:59.343Z,1.00
2023-02-24T22:35:27.916Z,1.00
2023-02-24T22:37:57.541Z,1.00
2023-02-24T22:40:28.462Z,1.00
2023-02-24T22:42:58.670Z,1.00
2023-02-24T22:45:27.384Z,1.00
2023-02-24T22:48:03.340Z,1.00
2023-02-24T22:50:31.809Z,1.00
2023-02-24T22:53:00.261Z,1.00
2023-02-24T22:55:30.254Z,1.00
2023-02-24T22:57:58.794Z,1.00
2023-02-24T23:00:29.867Z,1.00
2023-02-24T23:02:59.633Z,1.00
2023-02-24T23:05:28.896Z,1.00
2023-02-24T23:07:58.258Z,1.00
2023-02-24T23:10:30.468Z,1.00
2023-02-24T23:12:59.115Z,1.00
2023-02-24T23:15:28.603Z,1.00
2023-02-24T23:17:58.205Z,1.00
2023-02-24T23:20:28.137Z,1.00
2023-02-24T23:22:58.947Z,1.00
2023-02-24T23:25:27.639Z,1.00
2023-02-24T23:27:57.875Z,1.00
2023-02-24T23:30:26.440Z,1.00
2023-02-24T23:32:55.495Z,1.00
2023-02-24T23:35:24.392Z,1.00
2023-02-24T23:37:52.793Z,1.00
2023-02-24T23:40:26.132Z,1.00
2023-02-24T23:42:56.738Z,1.00
2023-02-24T23:45:26.590Z,1.00
2023-02-24T23:47:55.340Z,1.00
2023-02-24T23:50:25.045Z,1.00
2023-02-24T23:52:54.016Z,1.00
2023-02-24T23:55:24.269Z,1.00
2023-02-24T23:57:53.364Z,1.00
